sensor_id;sensor_type;location;lat;lon;timestamp;pressure;altitude;pressure_sealevel;temperature;humidity
11085;BME280;5596;46.826;8.650;2023-02-03T00:00:41;97740.75;;;4.36;100.00
11085;BME280;5596;46.826;8.650;2023-02-03T00:03:08;97720.84;;;4.31;100.00
11085;BME280;5596;46.826;8.650;2023-02-03T00:05:35;97731.53;;;4.31;100.00
11085;BME280;5596;46.826;8.650;2023-02-03T00:08:04;97731.84;;;4.28;100.00
11085;BME280;5596;46.826;8.650;2023-02-03T00:10:33;97734.06;;;4.32;100.00
11085;BME280;5596;46.826;8.650;2023-02-03T00:13:03;97740.91;;;4.35;100.00
11085;BME280;5596;46.826;8.650;2023-02-03T00:15:32;97738.56;;;4.32;100.00
11085;BME280;5596;46.826;8.650;2023-02-03T00:17:59;97735.00;;;4.23;100.00
11085;BME280;5596;46.826;8.650;2023-02-03T00:20:26;97743.72;;;4.25;100.00
11085;BME280;5596;46.826;8.650;2023-02-03T00:22:53;97737.53;;;4.25;100.00
11085;BME280;5596;46.826;8.650;2023-02-03T00:25:20;97735.25;;;4.12;100.00
11085;BME280;5596;46.826;8.650;2023-02-03T00:27:47;97744.94;;;4.13;100.00
11085;BME280;5596;46.826;8.650;2023-02-03T00:30:16;97739.06;;;4.09;100.00
11085;BME280;5596;46.826;8.650;2023-02-03T00:32:43;97740.66;;;4.20;100.00
11085;BME280;5596;46.826;8.650;2023-02-03T00:35:10;97737.91;;;4.12;100.00
11085;BME280;5596;46.826;8.650;2023-02-03T00:37:37;97748.66;;;4.20;100.00
11085;BME280;5596;46.826;8.650;2023-02-03T00:40:09;97746.84;;;4.21;100.00
11085;BME280;5596;46.826;8.650;2023-02-03T00:42:37;97749.34;;;4.22;100.00
11085;BME280;5596;46.826;8.650;2023-02-03T00:45:07;97731.72;;;4.11;100.00
11085;BME280;5596;46.826;8.650;2023-02-03T00:47:36;97750.84;;;4.16;100.00
11085;BME280;5596;46.826;8.650;2023-02-03T00:50:03;97761.69;;;4.15;100.00
11085;BME280;5596;46.826;8.650;2023-02-03T00:52:31;97768.31;;;4.11;100.00
11085;BME280;5596;46.826;8.650;2023-02-03T00:54:58;97768.31;;;4.11;100.00
11085;BME280;5596;46.826;8.650;2023-02-03T00:57:25;97764.66;;;4.12;100.00
11085;BME280;5596;46.826;8.650;2023-02-03T00:59:52;97757.94;;;4.08;100.00
11085;BME280;5596;46.826;8.650;2023-02-03T01:02:20;97756.56;;;4.04;100.00
11085;BME280;5596;46.826;8.650;2023-02-03T01:04:49;97747.84;;;4.02;100.00
11085;BME280;5596;46.826;8.650;2023-02-03T01:07:16;97746.25;;;4.09;100.00
11085;BME280;5596;46.826;8.650;2023-02-03T01:09:43;97740.69;;;4.02;100.00
11085;BME280;5596;46.826;8.650;2023-02-03T01:12:10;97745.88;;;4.04;100.00
11085;BME280;5596;46.826;8.650;2023-02-03T01:14:39;97746.56;;;4.06;100.00
11085;BME280;5596;46.826;8.650;2023-02-03T01:17:06;97745.88;;;4.04;100.00
11085;BME280;5596;46.826;8.650;2023-02-03T01:19:33;97748.69;;;4.02;100.00
11085;BME280;5596;46.826;8.650;2023-02-03T01:22:02;97763.31;;;4.08;100.00
11085;BME280;5596;46.826;8.650;2023-02-03T01:24:30;97760.44;;;4.09;100.00
11085;BME280;5596;46.826;8.650;2023-02-03T01:26:57;97756.94;;;4.09;100.00
11085;BME280;5596;46.826;8.650;2023-02-03T01:29:26;97757.94;;;4.08;100.00
11085;BME280;5596;46.826;8.650;2023-02-03T01:31:54;97751.22;;;4.04;100.00
11085;BME280;5596;46.826;8.650;2023-02-03T01:34:21;97755.09;;;4.09;100.00
11085;BME280;5596;46.826;8.650;2023-02-03T01:36:48;97761.69;;;4.15;100.00
11085;BME280;5596;46.826;8.650;2023-02-03T01:39:17;97749.44;;;4.12;100.00
11085;BME280;5596;46.826;8.650;2023-02-03T01:41:45;97757.84;;;4.17;100.00
11085;BME280;5596;46.826;8.650;2023-02-03T01:44:38;97765.69;;;4.19;100.00
11085;BME280;5596;46.826;8.650;2023-02-03T01:47:14;97765.84;;;4.17;100.00
11085;BME280;5596;46.826;8.650;2023-02-03T01:49:44;97769.38;;;4.18;100.00
11085;BME280;5596;46.826;8.650;2023-02-03T01:52:13;97768.72;;;4.16;100.00
11085;BME280;5596;46.826;8.650;2023-02-03T01:54:44;97770.53;;;4.15;100.00
11085;BME280;5596;46.826;8.650;2023-02-03T01:57:16;97768.00;;;4.14;100.00
11085;BME280;5596;46.826;8.650;2023-02-03T01:59:47;97769.00;;;4.13;100.00
11085;BME280;5596;46.826;8.650;2023-02-03T02:02:15;97771.13;;;4.09;100.00
11085;BME280;5596;46.826;8.650;2023-02-03T02:04:49;97766.41;;;4.03;100.00
11085;BME280;5596;46.826;8.650;2023-02-03T02:07:18;97758.50;;;3.94;100.00
11085;BME280;5596;46.826;8.650;2023-02-03T02:09:47;97771.41;;;3.98;100.00
11085;BME280;5596;46.826;8.650;2023-02-03T02:12:14;97776.97;;;3.87;100.00
11085;BME280;5596;46.826;8.650;2023-02-03T02:14:42;97777.19;;;3.76;100.00
11085;BME280;5596;46.826;8.650;2023-02-03T02:17:18;97788.97;;;3.65;100.00
11085;BME280;5596;46.826;8.650;2023-02-03T02:20:20;97792.00;;;3.70;100.00
11085;BME280;5596;46.826;8.650;2023-02-03T02:23:08;97813.38;;;3.70;100.00
11085;BME280;5596;46.826;8.650;2023-02-03T02:25:55;97823.38;;;3.68;100.00
11085;BME280;5596;46.826;8.650;2023-02-03T02:28:41;97822.69;;;3.66;100.00
11085;BME280;5596;46.826;8.650;2023-02-03T02:31:42;97816.28;;;3.59;100.00
11085;BME280;5596;46.826;8.650;2023-02-03T02:34:21;97828.63;;;3.60;100.00
11085;BME280;5596;46.826;8.650;2023-02-03T02:37:00;97835.75;;;3.69;100.00
11085;BME280;5596;46.826;8.650;2023-02-03T02:39:38;97822.69;;;3.66;100.00
11085;BME280;5596;46.826;8.650;2023-02-03T02:42:14;97820.41;;;3.71;100.00
11085;BME280;5596;46.826;8.650;2023-02-03T02:44:45;97819.56;;;3.71;100.00
11085;BME280;5596;46.826;8.650;2023-02-03T02:47:18;97804.31;;;3.63;100.00
11085;BME280;5596;46.826;8.650;2023-02-03T02:49:51;97834.16;;;3.76;100.00
11085;BME280;5596;46.826;8.650;2023-02-03T02:52:21;97805.38;;;3.70;100.00
11085;BME280;5596;46.826;8.650;2023-02-03T02:54:52;97811.56;;;3.71;100.00
11085;BME280;5596;46.826;8.650;2023-02-03T02:57:25;97833.56;;;3.83;100.00
11085;BME280;5596;46.826;8.650;2023-02-03T02:59:53;97844.06;;;3.84;100.00
11085;BME280;5596;46.826;8.650;2023-02-03T03:02:28;97833.25;;;3.86;100.00
11085;BME280;5596;46.826;8.650;2023-02-03T03:04:57;97826.53;;;3.82;100.00
11085;BME280;5596;46.826;8.650;2023-02-03T03:07:27;97804.06;;;3.74;100.00
11085;BME280;5596;46.826;8.650;2023-02-03T03:09:57;97815.59;;;3.75;100.00
11085;BME280;5596;46.826;8.650;2023-02-03T03:12:28;97819.88;;;3.68;100.00
11085;BME280;5596;46.826;8.650;2023-02-03T03:15:00;97807.59;;;3.57;100.00
11085;BME280;5596;46.826;8.650;2023-02-03T03:17:33;97796.97;;;3.48;100.00
11085;BME280;5596;46.826;8.650;2023-02-03T03:20:04;97780.03;;;3.39;100.00
11085;BME280;5596;46.826;8.650;2023-02-03T03:22:37;97782.06;;;3.45;100.00
11085;BME280;5596;46.826;8.650;2023-02-03T03:25:13;97781.09;;;3.46;100.00
11085;BME280;5596;46.826;8.650;2023-02-03T03:27:45;97779.03;;;3.40;100.00
11085;BME280;5596;46.826;8.650;2023-02-03T03:30:17;97774.28;;;3.34;100.00
11085;BME280;5596;46.826;8.650;2023-02-03T03:32:47;97768.22;;;3.32;100.00
11085;BME280;5596;46.826;8.650;2023-02-03T03:35:15;97788.69;;;3.41;100.00
11085;BME280;5596;46.826;8.650;2023-02-03T03:37:44;97791.53;;;3.39;100.00
11085;BME280;5596;46.826;8.650;2023-02-03T03:40:19;97773.97;;;3.37;100.00
11085;BME280;5596;46.826;8.650;2023-02-03T03:42:50;97763.00;;;3.40;100.00
11085;BME280;5596;46.826;8.650;2023-02-03T03:45:25;97763.00;;;3.40;100.00
11085;BME280;5596;46.826;8.650;2023-02-03T03:47:58;97769.09;;;3.50;100.00
11085;BME280;5596;46.826;8.650;2023-02-03T03:50:32;97766.34;;;3.42;100.00
11085;BME280;5596;46.826;8.650;2023-02-03T03:53:02;97764.84;;;3.39;100.00
11085;BME280;5596;46.826;8.650;2023-02-03T03:55:33;97750.25;;;3.34;100.00
11085;BME280;5596;46.826;8.650;2023-02-03T03:58:03;97745.22;;;3.31;100.00
11085;BME280;5596;46.826;8.650;2023-02-03T04:00:34;97751.41;;;3.31;100.00
11085;BME280;5596;46.826;8.650;2023-02-03T04:03:11;97750.66;;;3.39;100.00
11085;BME280;5596;46.826;8.650;2023-02-03T04:05:41;97754.75;;;3.33;100.00
11085;BME280;5596;46.826;8.650;2023-02-03T04:08:08;97748.34;;;3.26;100.00
11085;BME280;5596;46.826;8.650;2023-02-03T04:10:37;97745.31;;;3.39;100.00
11085;BME280;5596;46.826;8.650;2023-02-03T04:13:05;97741.72;;;3.30;100.00
11085;BME280;5596;46.826;8.650;2023-02-03T04:15:33;97736.53;;;3.29;100.00
11085;BME280;5596;46.826;8.650;2023-02-03T04:18:01;97723.78;;;3.23;100.00
11085;BME280;5596;46.826;8.650;2023-02-03T04:20:30;97731.47;;;3.26;100.00
11085;BME280;5596;46.826;8.650;2023-02-03T04:22:58;97712.19;;;3.14;100.00
11085;BME280;5596;46.826;8.650;2023-02-03T04:25:26;97711.63;;;3.11;100.00
11085;BME280;5596;46.826;8.650;2023-02-03T04:27:53;97716.00;;;3.12;100.00
11085;BME280;5596;46.826;8.650;2023-02-03T04:30:21;97713.84;;;2.97;100.00
11085;BME280;5596;46.826;8.650;2023-02-03T04:32:48;97739.97;;;2.94;100.00
11085;BME280;5596;46.826;8.650;2023-02-03T04:35:15;97756.66;;;2.96;100.00
11085;BME280;5596;46.826;8.650;2023-02-03T04:37:44;97757.09;;;2.91;100.00
11085;BME280;5596;46.826;8.650;2023-02-03T04:40:12;97753.22;;;2.86;100.00
11085;BME280;5596;46.826;8.650;2023-02-03T04:42:39;97760.94;;;2.89;100.00
11085;BME280;5596;46.826;8.650;2023-02-03T04:45:09;97776.09;;;2.88;100.00
11085;BME280;5596;46.826;8.650;2023-02-03T04:47:36;97771.31;;;2.82;100.00
11085;BME280;5596;46.826;8.650;2023-02-03T04:50:04;97762.53;;;2.72;100.00
11085;BME280;5596;46.826;8.650;2023-02-03T04:52:31;97760.66;;;2.55;100.00
11085;BME280;5596;46.826;8.650;2023-02-03T04:55:00;97747.88;;;2.49;100.00
11085;BME280;5596;46.826;8.650;2023-02-03T04:57:28;97748.00;;;2.47;100.00
11085;BME280;5596;46.826;8.650;2023-02-03T04:59:55;97734.16;;;2.44;100.00
11085;BME280;5596;46.826;8.650;2023-02-03T05:02:22;97722.25;;;2.38;100.00
11085;BME280;5596;46.826;8.650;2023-02-03T05:04:49;97701.63;;;2.31;100.00
11085;BME280;5596;46.826;8.650;2023-02-03T05:07:16;97696.03;;;2.34;100.00
11085;BME280;5596;46.826;8.650;2023-02-03T05:09:44;97691.81;;;2.31;100.00
11085;BME280;5596;46.826;8.650;2023-02-03T05:12:12;97698.03;;;2.22;100.00
11085;BME280;5596;46.826;8.650;2023-02-03T05:14:39;97690.63;;;2.06;100.00
11085;BME280;5596;46.826;8.650;2023-02-03T05:17:06;97697.94;;;2.04;100.00
11085;BME280;5596;46.826;8.650;2023-02-03T05:19:33;97704.66;;;2.08;100.00
11085;BME280;5596;46.826;8.650;2023-02-03T05:22:00;97704.66;;;2.08;100.00
11085;BME280;5596;46.826;8.650;2023-02-03T05:24:27;97695.13;;;2.06;100.00
11085;BME280;5596;46.826;8.650;2023-02-03T05:26:54;97692.91;;;2.01;100.00
11085;BME280;5596;46.826;8.650;2023-02-03T05:29:22;97681.28;;;2.02;100.00
11085;BME280;5596;46.826;8.650;2023-02-03T05:31:49;97695.53;;;2.20;100.00
11085;BME280;5596;46.826;8.650;2023-02-03T05:34:16;97716.25;;;2.26;100.00
11085;BME280;5596;46.826;8.650;2023-02-03T05:36:43;97721.94;;;2.41;100.00
11085;BME280;5596;46.826;8.650;2023-02-03T05:39:11;97725.84;;;2.47;100.00
11085;BME280;5596;46.826;8.650;2023-02-03T05:41:38;97744.66;;;2.55;100.00
11085;BME280;5596;46.826;8.650;2023-02-03T05:44:19;97743.81;;;2.54;100.00
11085;BME280;5596;46.826;8.650;2023-02-03T05:46:49;97751.38;;;2.49;100.00
11085;BME280;5596;46.826;8.650;2023-02-03T05:49:18;97774.38;;;2.60;100.00
11085;BME280;5596;46.826;8.650;2023-02-03T05:51:45;97776.69;;;2.73;100.00
11085;BME280;5596;46.826;8.650;2023-02-03T05:54:13;97779.13;;;2.66;100.00
11085;BME280;5596;46.826;8.650;2023-02-03T05:56:40;97779.00;;;2.58;100.00
11085;BME280;5596;46.826;8.650;2023-02-03T05:59:07;97797.63;;;2.67;100.00
11085;BME280;5596;46.826;8.650;2023-02-03T06:01:34;97791.31;;;2.69;100.00
11085;BME280;5596;46.826;8.650;2023-02-03T06:04:06;97812.09;;;2.65;100.00
11085;BME280;5596;46.826;8.650;2023-02-03T06:06:34;97814.84;;;2.46;100.00
11085;BME280;5596;46.826;8.650;2023-02-03T06:09:02;97807.16;;;2.23;100.00
11085;BME280;5596;46.826;8.650;2023-02-03T06:11:33;97816.13;;;2.13;100.00
11085;BME280;5596;46.826;8.650;2023-02-03T06:14:01;97822.44;;;2.21;100.00
11085;BME280;5596;46.826;8.650;2023-02-03T06:16:29;97825.78;;;2.33;100.00
11085;BME280;5596;46.826;8.650;2023-02-03T06:18:56;97824.94;;;2.42;100.00
11085;BME280;5596;46.826;8.650;2023-02-03T06:21:25;97820.84;;;2.48;100.00
11085;BME280;5596;46.826;8.650;2023-02-03T06:23:53;97824.78;;;2.53;100.00
11085;BME280;5596;46.826;8.650;2023-02-03T06:26:21;97835.97;;;2.66;100.00
11085;BME280;5596;46.826;8.650;2023-02-03T06:28:48;97828.56;;;2.60;100.00
11085;BME280;5596;46.826;8.650;2023-02-03T06:31:15;97819.00;;;2.58;100.00
11085;BME280;5596;46.826;8.650;2023-02-03T06:33:42;97824.09;;;2.51;100.00
11085;BME280;5596;46.826;8.650;2023-02-03T06:36:09;97827.88;;;2.39;100.00
11085;BME280;5596;46.826;8.650;2023-02-03T06:38:37;97832.69;;;2.36;100.00
11085;BME280;5596;46.826;8.650;2023-02-03T06:41:07;97827.34;;;2.36;100.00
11085;BME280;5596;46.826;8.650;2023-02-03T06:43:34;97829.03;;;2.37;100.00
11085;BME280;5596;46.826;8.650;2023-02-03T06:46:01;97839.13;;;2.43;100.00
11085;BME280;5596;46.826;8.650;2023-02-03T06:48:28;97846.00;;;2.45;100.00
11085;BME280;5596;46.826;8.650;2023-02-03T06:50:55;97839.81;;;2.45;100.00
11085;BME280;5596;46.826;8.650;2023-02-03T06:53:22;97846.38;;;2.50;100.00
11085;BME280;5596;46.826;8.650;2023-02-03T06:55:51;97830.28;;;2.42;100.00
11085;BME280;5596;46.826;8.650;2023-02-03T06:58:18;97821.88;;;2.37;100.00
11085;BME280;5596;46.826;8.650;2023-02-03T07:00:45;97839.81;;;2.45;100.00
11085;BME280;5596;46.826;8.650;2023-02-03T07:03:12;97822.28;;;2.42;100.00
11085;BME280;5596;46.826;8.650;2023-02-03T07:05:39;97830.53;;;2.49;100.00
11085;BME280;5596;46.826;8.650;2023-02-03T07:08:06;97821.00;;;2.46;100.00
11085;BME280;5596;46.826;8.650;2023-02-03T07:10:32;97823.13;;;2.43;100.00
11085;BME280;5596;46.826;8.650;2023-02-03T07:13:05;97809.78;;;2.43;100.00
11085;BME280;5596;46.826;8.650;2023-02-03T07:15:33;97813.81;;;2.47;100.00
11085;BME280;5596;46.826;8.650;2023-02-03T07:18:01;97802.59;;;2.53;100.00
11085;BME280;5596;46.826;8.650;2023-02-03T07:20:28;97808.94;;;2.52;100.00
11085;BME280;5596;46.826;8.650;2023-02-03T07:22:57;97805.97;;;2.55;100.00
11085;BME280;5596;46.826;8.650;2023-02-03T07:25:24;97808.34;;;2.58;100.00
11085;BME280;5596;46.826;8.650;2023-02-03T07:27:51;97812.81;;;2.57;100.00
11085;BME280;5596;46.826;8.650;2023-02-03T07:30:21;97814.50;;;2.58;100.00
11085;BME280;5596;46.826;8.650;2023-02-03T07:32:48;97808.47;;;2.56;100.00
11085;BME280;5596;46.826;8.650;2023-02-03T07:35:16;97824.66;;;2.55;100.00
11085;BME280;5596;46.826;8.650;2023-02-03T07:37:44;97828.97;;;2.56;100.00
11085;BME280;5596;46.826;8.650;2023-02-03T07:40:11;97848.34;;;2.58;100.00
11085;BME280;5596;46.826;8.650;2023-02-03T07:42:40;97845.81;;;2.56;100.00
11085;BME280;5596;46.826;8.650;2023-02-03T07:45:09;97853.41;;;2.51;100.00
11085;BME280;5596;46.826;8.650;2023-02-03T07:47:37;97846.84;;;2.36;100.00
11085;BME280;5596;46.826;8.650;2023-02-03T07:50:05;97864.09;;;2.42;100.00
11085;BME280;5596;46.826;8.650;2023-02-03T07:52:32;97848.09;;;2.42;100.00
11085;BME280;5596;46.826;8.650;2023-02-03T07:54:59;97859.84;;;2.49;100.00
11085;BME280;5596;46.826;8.650;2023-02-03T07:57:26;97853.53;;;2.50;100.00
11085;BME280;5596;46.826;8.650;2023-02-03T07:59:53;97867.16;;;2.47;100.00
11085;BME280;5596;46.826;8.650;2023-02-03T08:02:20;97883.84;;;2.49;100.00
11085;BME280;5596;46.826;8.650;2023-02-03T08:04:49;97901.53;;;2.50;100.00
11085;BME280;5596;46.826;8.650;2023-02-03T08:07:16;97883.72;;;2.41;100.00
11085;BME280;5596;46.826;8.650;2023-02-03T08:09:43;97907.16;;;2.47;100.00
11085;BME280;5596;46.826;8.650;2023-02-03T08:12:10;97892.03;;;2.38;100.00
11085;BME280;5596;46.826;8.650;2023-02-03T08:14:37;97906.03;;;2.49;100.00
11085;BME280;5596;46.826;8.650;2023-02-03T08:17:04;97903.09;;;2.52;100.00
11085;BME280;5596;46.826;8.650;2023-02-03T08:19:31;97892.16;;;2.46;100.00
11085;BME280;5596;46.826;8.650;2023-02-03T08:21:59;97904.91;;;2.52;100.00
11085;BME280;5596;46.826;8.650;2023-02-03T08:24:27;97898.03;;;2.49;100.00
11085;BME280;5596;46.826;8.650;2023-02-03T08:26:54;97898.16;;;2.48;100.00
11085;BME280;5596;46.826;8.650;2023-02-03T08:29:21;97916.69;;;2.49;100.00
11085;BME280;5596;46.826;8.650;2023-02-03T08:31:48;97909.84;;;2.37;100.00
11085;BME280;5596;46.826;8.650;2023-02-03T08:34:15;97904.66;;;2.36;100.00
11085;BME280;5596;46.826;8.650;2023-02-03T08:36:42;97902.56;;;2.30;100.00
11085;BME280;5596;46.826;8.650;2023-02-03T08:39:11;97909.69;;;2.39;100.00
11085;BME280;5596;46.826;8.650;2023-02-03T08:41:38;97923.72;;;2.41;100.00
11085;BME280;5596;46.826;8.650;2023-02-03T08:44:08;97919.66;;;2.37;100.00
11085;BME280;5596;46.826;8.650;2023-02-03T08:46:35;97950.81;;;2.46;100.00
11085;BME280;5596;46.826;8.650;2023-02-03T08:49:08;97930.19;;;2.38;100.00
11085;BME280;5596;46.826;8.650;2023-02-03T08:51:35;97946.47;;;2.45;100.00
11085;BME280;5596;46.826;8.650;2023-02-03T08:54:03;97950.09;;;2.44;100.00
11085;BME280;5596;46.826;8.650;2023-02-03T08:56:31;97951.50;;;2.48;100.00
11085;BME280;5596;46.826;8.650;2023-02-03T08:58:59;97940.41;;;2.43;100.00
11085;BME280;5596;46.826;8.650;2023-02-03T09:01:26;97944.06;;;2.51;100.00
11085;BME280;5596;46.826;8.650;2023-02-03T09:03:54;97943.94;;;2.53;100.00
11085;BME280;5596;46.826;8.650;2023-02-03T09:06:21;97925.69;;;2.48;100.00
11085;BME280;5596;46.826;8.650;2023-02-03T09:08:51;97930.41;;;2.74;100.00
11085;BME280;5596;46.826;8.650;2023-02-03T09:11:28;97914.97;;;2.87;100.00
11085;BME280;5596;46.826;8.650;2023-02-03T09:13:58;97921.06;;;3.07;100.00
11085;BME280;5596;46.826;8.650;2023-02-03T09:16:25;97901.38;;;3.17;100.00
11085;BME280;5596;46.826;8.650;2023-02-03T09:18:52;97890.53;;;3.28;100.00
11085;BME280;5596;46.826;8.650;2023-02-03T09:21:19;97894.78;;;3.49;100.00
11085;BME280;5596;46.826;8.650;2023-02-03T09:23:55;97887.13;;;3.63;100.00
11085;BME280;5596;46.826;8.650;2023-02-03T09:26:27;97878.59;;;3.77;100.00
11085;BME280;5596;46.826;8.650;2023-02-03T09:28:54;97893.50;;;3.98;100.00
11085;BME280;5596;46.826;8.650;2023-02-03T09:31:23;97878.06;;;4.09;100.00
11085;BME280;5596;46.826;8.650;2023-02-03T09:33:59;97859.06;;;4.30;100.00
11085;BME280;5596;46.826;8.650;2023-02-03T09:36:26;97856.03;;;4.51;100.00
11085;BME280;5596;46.826;8.650;2023-02-03T09:38:57;97835.53;;;4.60;100.00
11085;BME280;5596;46.826;8.650;2023-02-03T09:41:47;97838.00;;;4.79;100.00
11085;BME280;5596;46.826;8.650;2023-02-03T09:45:07;97835.41;;;4.95;100.00
11085;BME280;5596;46.826;8.650;2023-02-03T09:48:17;97834.81;;;5.01;100.00
11085;BME280;5596;46.826;8.650;2023-02-03T09:50:45;97827.97;;;5.07;100.00
11085;BME280;5596;46.826;8.650;2023-02-03T09:53:25;97800.69;;;5.11;100.00
11085;BME280;5596;46.826;8.650;2023-02-03T09:56:02;97786.38;;;5.28;100.00
11085;BME280;5596;46.826;8.650;2023-02-03T09:58:44;97803.19;;;5.55;100.00
11085;BME280;5596;46.826;8.650;2023-02-03T10:01:58;97796.53;;;5.67;100.00
11085;BME280;5596;46.826;8.650;2023-02-03T10:04:49;97794.88;;;5.82;100.00
11085;BME280;5596;46.826;8.650;2023-02-03T10:10:38;97806.03;;;6.12;98.50
11085;BME280;5596;46.826;8.650;2023-02-03T10:13:55;97795.63;;;6.17;97.81
11085;BME280;5596;46.826;8.650;2023-02-03T10:16:54;97798.97;;;6.27;96.46
11085;BME280;5596;46.826;8.650;2023-02-03T10:20:05;97792.63;;;6.20;95.40
11085;BME280;5596;46.826;8.650;2023-02-03T10:22:40;97794.78;;;6.16;95.00
11085;BME280;5596;46.826;8.650;2023-02-03T10:25:20;97773.84;;;6.20;96.29
11085;BME280;5596;46.826;8.650;2023-02-03T10:28:43;97781.53;;;6.39;92.79
11085;BME280;5596;46.826;8.650;2023-02-03T10:31:21;97755.34;;;6.49;93.18
11085;BME280;5596;46.826;8.650;2023-02-03T10:33:59;97755.66;;;6.70;92.25
11085;BME280;5596;46.826;8.650;2023-02-03T10:36:56;97757.78;;;6.83;91.64
11085;BME280;5596;46.826;8.650;2023-02-03T10:39:49;97758.22;;;7.03;90.50
11085;BME280;5596;46.826;8.650;2023-02-03T10:42:30;97746.66;;;7.02;89.85
11085;BME280;5596;46.826;8.650;2023-02-03T10:45:38;97737.34;;;7.21;88.87
11085;BME280;5596;46.826;8.650;2023-02-03T10:48:36;97736.50;;;7.51;89.01
11085;BME280;5596;46.826;8.650;2023-02-03T10:51:27;97734.47;;;7.76;86.52
11085;BME280;5596;46.826;8.650;2023-02-03T10:57:33;97735.56;;;8.13;82.78
11085;BME280;5596;46.826;8.650;2023-02-03T11:01:04;97719.91;;;8.16;81.39
11085;BME280;5596;46.826;8.650;2023-02-03T11:04:19;97717.25;;;8.31;80.24
11085;BME280;5596;46.826;8.650;2023-02-03T11:06:56;97718.50;;;8.58;79.95
11085;BME280;5596;46.826;8.650;2023-02-03T11:13:33;97714.16;;;9.01;76.43
11085;BME280;5596;46.826;8.650;2023-02-03T11:16:17;97699.63;;;9.02;75.85
11085;BME280;5596;46.826;8.650;2023-02-03T11:19:06;97711.03;;;9.33;75.71
11085;BME280;5596;46.826;8.650;2023-02-03T11:21:57;97709.84;;;9.57;74.89
11085;BME280;5596;46.826;8.650;2023-02-03T11:24:39;97693.28;;;9.60;75.94
11085;BME280;5596;46.826;8.650;2023-02-03T11:27:34;97693.81;;;9.92;74.21
11085;BME280;5596;46.826;8.650;2023-02-03T11:30:31;97689.66;;;10.17;73.04
11085;BME280;5596;46.826;8.650;2023-02-03T11:33:05;97704.53;;;10.28;71.52
11085;BME280;5596;46.826;8.650;2023-02-03T11:36:02;97701.66;;;10.29;71.35
11085;BME280;5596;46.826;8.650;2023-02-03T11:38:39;97688.59;;;10.33;71.79
11085;BME280;5596;46.826;8.650;2023-02-03T11:41:21;97701.94;;;10.69;71.19
11085;BME280;5596;46.826;8.650;2023-02-03T11:44:20;97702.00;;;10.82;70.68
11085;BME280;5596;46.826;8.650;2023-02-03T11:47:07;97686.13;;;11.07;69.28
11085;BME280;5596;46.826;8.650;2023-02-03T11:50:19;97674.81;;;10.90;70.75
11085;BME280;5596;46.826;8.650;2023-02-03T11:53:26;97688.03;;;10.72;69.95
11085;BME280;5596;46.826;8.650;2023-02-03T11:56:28;97679.81;;;10.86;69.83
11085;BME280;5596;46.826;8.650;2023-02-03T11:59:42;97690.06;;;10.35;68.75
11085;BME280;5596;46.826;8.650;2023-02-03T12:07:02;97679.66;;;9.90;72.01
11085;BME280;5596;46.826;8.650;2023-02-03T12:09:08;97706.41;;;10.27;71.26
11085;BME280;5596;46.826;8.650;2023-02-03T12:22:29;97731.16;;;10.58;66.58
11085;BME280;5596;46.826;8.650;2023-02-03T12:25:06;97719.91;;;10.55;65.52
11085;BME280;5596;46.826;8.650;2023-02-03T12:27:49;97731.91;;;10.80;64.63
11085;BME280;5596;46.826;8.650;2023-02-03T12:30:24;97708.28;;;10.89;63.36
11085;BME280;5596;46.826;8.650;2023-02-03T12:32:56;97715.44;;;11.03;62.63
11085;BME280;5596;46.826;8.650;2023-02-03T12:35:28;97690.69;;;11.06;62.80
11085;BME280;5596;46.826;8.650;2023-02-03T12:38:04;97696.75;;;11.08;62.17
11085;BME280;5596;46.826;8.650;2023-02-03T12:40:35;97696.53;;;11.10;63.09
11085;BME280;5596;46.826;8.650;2023-02-03T12:43:20;97688.53;;;11.36;62.58
11085;BME280;5596;46.826;8.650;2023-02-03T12:45:53;97689.19;;;11.38;60.94
11085;BME280;5596;46.826;8.650;2023-02-03T12:48:24;97683.69;;;11.18;62.01
11085;BME280;5596;46.826;8.650;2023-02-03T12:50:58;97666.53;;;10.98;63.52
11085;BME280;5596;46.826;8.650;2023-02-03T12:53:31;97671.50;;;10.88;62.36
11085;BME280;5596;46.826;8.650;2023-02-03T12:56:04;97667.63;;;11.04;62.82
11085;BME280;5596;46.826;8.650;2023-02-03T12:58:38;97646.53;;;11.40;62.22
11085;BME280;5596;46.826;8.650;2023-02-03T13:01:09;97650.31;;;11.52;61.93
11085;BME280;5596;46.826;8.650;2023-02-03T13:03:43;97647.41;;;11.54;61.22
11085;BME280;5596;46.826;8.650;2023-02-03T13:06:16;97639.94;;;11.69;61.08
11085;BME280;5596;46.826;8.650;2023-02-03T13:08:55;97638.50;;;11.73;61.36
11085;BME280;5596;46.826;8.650;2023-02-03T13:11:28;97644.94;;;11.72;60.31
11085;BME280;5596;46.826;8.650;2023-02-03T13:14:02;97636.34;;;11.35;60.35
11085;BME280;5596;46.826;8.650;2023-02-03T13:16:38;97635.41;;;11.09;62.38
11085;BME280;5596;46.826;8.650;2023-02-03T13:19:14;97634.28;;;10.90;63.08
11085;BME280;5596;46.826;8.650;2023-02-03T13:21:43;97644.53;;;10.60;63.14
11085;BME280;5596;46.826;8.650;2023-02-03T13:24:12;97646.78;;;10.56;63.63
11085;BME280;5596;46.826;8.650;2023-02-03T13:27:02;97645.56;;;10.31;65.14
11085;BME280;5596;46.826;8.650;2023-02-03T13:30:00;97639.50;;;10.22;65.58
11085;BME280;5596;46.826;8.650;2023-02-03T13:32:42;97636.47;;;10.11;66.24
11085;BME280;5596;46.826;8.650;2023-02-03T13:35:41;97637.66;;;10.02;67.26
11085;BME280;5596;46.826;8.650;2023-02-03T13:38:35;97624.78;;;10.04;67.66
11085;BME280;5596;46.826;8.650;2023-02-03T13:41:08;97616.69;;;10.04;67.33
11085;BME280;5596;46.826;8.650;2023-02-03T13:43:44;97613.09;;;9.97;67.70
11085;BME280;5596;46.826;8.650;2023-02-03T13:46:20;97604.13;;;9.90;68.00
11085;BME280;5596;46.826;8.650;2023-02-03T13:48:50;97606.78;;;9.83;68.22
11085;BME280;5596;46.826;8.650;2023-02-03T13:51:21;97605.75;;;9.63;69.61
11085;BME280;5596;46.826;8.650;2023-02-03T13:53:51;97605.38;;;9.66;70.51
11085;BME280;5596;46.826;8.650;2023-02-03T13:56:26;97588.72;;;9.62;69.87
11085;BME280;5596;46.826;8.650;2023-02-03T13:59:03;97587.06;;;9.61;69.54
11085;BME280;5596;46.826;8.650;2023-02-03T14:01:34;97587.34;;;9.45;70.08
11085;BME280;5596;46.826;8.650;2023-02-03T14:04:07;97590.44;;;9.42;71.25
11085;BME280;5596;46.826;8.650;2023-02-03T14:06:56;97600.19;;;9.43;71.39
11085;BME280;5596;46.826;8.650;2023-02-03T14:09:39;97606.03;;;9.46;71.50
11085;BME280;5596;46.826;8.650;2023-02-03T14:12:54;97597.75;;;9.48;72.26